createdAt,value
2023-02-27T00:02:14.693Z,100158.94
2023-02-27T00:04:48.600Z,100155.21
2023-02-27T00:07:17.796Z,100160.17
2023-02-27T00:09:49.764Z,100161.08
2023-02-27T00:12:20.209Z,100162.93
2023-02-27T00:14:48.676Z,100167.84
2023-02-27T00:17:20.234Z,100176.73
2023-02-27T00:19:55.975Z,100175.37
2023-02-27T00:22:27.120Z,100171.35
2023-02-27T00:25:00.218Z,100186.68
2023-02-27T00:27:32.891Z,100185.73
2023-02-27T00:30:17.239Z,100187.52
2023-02-27T00:32:47.160Z,100190.92
2023-02-27T00:35:17.990Z,100190.66
2023-02-27T00:37:51.797Z,100190.72
2023-02-27T00:40:20.688Z,100199.58
2023-02-27T00:42:52.654Z,100201.71
2023-02-27T00:45:24.989Z,100207.39
2023-02-27T00:48:06.101Z,100208.55
2023-02-27T00:50:43.801Z,100217.06
2023-02-27T00:53:15.558Z,100221.11
2023-02-27T00:55:45.422Z,100223.83
2023-02-27T00:58:26.194Z,100226.25
2023-02-27T01:00:55.860Z,100233.65
2023-02-27T01:03:26.431Z,100232.05
2023-02-27T01:05:56.038Z,100238.63
2023-02-27T01:08:27.809Z,100233.06
2023-02-27T01:11:21.374Z,100241.38
2023-02-27T01:13:52.312Z,100248.80
2023-02-27T01:16:20.902Z,100249.23
2023-02-27T01:18:49.898Z,100247.45
2023-02-27T01:21:22.490Z,100248.77
2023-02-27T01:23:51.664Z,100244.15
2023-02-27T01:26:21.885Z,100250.49
2023-02-27T01:28:54.873Z,100247.05
2023-02-27T01:31:27.237Z,100252.48
2023-02-27T01:34:09.657Z,100255.12
2023-02-27T01:36:39.466Z,100253.63
2023-02-27T01:39:11.844Z,100250.58
2023-02-27T01:41:51.178Z,100251.40
2023-02-27T01:44:23.034Z,100250.31
2023-02-27T01:47:06.876Z,100253.91
2023-02-27T01:49:35.767Z,100258.90
2023-02-27T01:52:09.103Z,100262.02
2023-02-27T01:54:43.177Z,100260.55
2023-02-27T01:57:16.575Z,100262.41
2023-02-27T01:59:45.157Z,100264.16
2023-02-27T02:02:30.234Z,100267.27
2023-02-27T02:04:59.222Z,100266.88
2023-02-27T02:07:28.113Z,100270.15
2023-02-27T02:09:59.989Z,100271.41
2023-02-27T02:12:37.466Z,100269.90
2023-02-27T02:15:11.074Z,100273.51
2023-02-27T02:17:51.532Z,100275.84
2023-02-27T02:21:03.022Z,100281.03
2023-02-27T02:24:08.059Z,100283.68
2023-02-27T02:27:24.710Z,100287.35
2023-02-27T02:30:28.367Z,100294.41
2023-02-27T02:33:11.807Z,100287.88
2023-02-27T02:36:11.016Z,100293.27
2023-02-27T02:39:04.901Z,100296.63
2023-02-27T02:42:00.405Z,100303.46
2023-02-27T02:45:11.904Z,100302.40
2023-02-27T02:48:41.689Z,100302.27
2023-02-27T02:51:18.729Z,100304.86
2023-02-27T02:54:18.614Z,100305.85
2023-02-27T02:56:54.448Z,100311.95
2023-02-27T02:59:31.857Z,100314.02
2023-02-27T03:02:06.892Z,100313.25
2023-02-27T03:04:58.210Z,100320.79
2023-02-27T03:07:37.019Z,100321.75
2023-02-27T03:10:25.696Z,100323.50
2023-02-27T03:13:11.070Z,100324.66
2023-02-27T03:16:08.090Z,100323.59
2023-02-27T03:19:17.311Z,100325.39
2023-02-27T03:22:03.449Z,100333.73
2023-02-27T03:25:01.622Z,100341.16
2023-02-27T03:27:33.046Z,100341.08
2023-02-27T03:30:08.435Z,100345.11
2023-02-27T03:32:42.855Z,100347.23
2023-02-27T03:35:15.824Z,100353.52
2023-02-27T03:37:59.569Z,100352.67
2023-02-27T03:40:38.607Z,100351.33
2023-02-27T03:43:17.929Z,100350.70
2023-02-27T03:46:15.717Z,100355.38
2023-02-27T03:48:46.737Z,100351.88
2023-02-27T03:51:21.394Z,100354.34
2023-02-27T03:54:15.036Z,100357.85
2023-02-27T03:57:06.677Z,100364.80
2023-02-27T03:59:38.313Z,100361.80
2023-02-27T04:02:07.163Z,100368.59
2023-02-27T04:04:44.291Z,100366.34
2023-02-27T04:07:25.495Z,100370.73
2023-02-27T04:10:16.994Z,100369.99
2023-02-27T04:13:19.469Z,100370.88
2023-02-27T04:16:22.305Z,100375.80
2023-02-27T04:18:59.953Z,100381.70
2023-02-27T04:21:38.981Z,100378.79
2023-02-27T04:24:30.500Z,100380.90
2023-02-27T04:34:15.938Z,100402.75
2023-02-27T04:36:52.099Z,100404.11
2023-02-27T04:39:29.744Z,100411.04
2023-02-27T04:42:03.731Z,100411.55
2023-02-27T04:44:34.238Z,100419.68
2023-02-27T04:47:04.792Z,100417.73
2023-02-27T04:49:36.933Z,100421.34
2023-02-27T04:52:06.335Z,100426.33
2023-02-27T04:54:50.280Z,100429.80
2023-02-27T04:57:25.346Z,100431.36
2023-02-27T04:59:55.436Z,100437.36
2023-02-27T05:02:27.360Z,100441.25
2023-02-27T05:04:58.970Z,100438.44
2023-02-27T05:07:30.912Z,100444.31
2023-02-27T05:10:02.885Z,100446.90
2023-02-27T05:12:34.785Z,100454.05
2023-02-27T05:15:14.021Z,100459.38
2023-02-27T05:17:49.488Z,100465.50
2023-02-27T05:20:20.357Z,100473.59
2023-02-27T05:23:16.853Z,100479.23
2023-02-27T05:25:57.051Z,100487.27
2023-02-27T05:28:43.066Z,100490.40
2023-02-27T05:31:30.013Z,100490.66
2023-02-27T05:34:08.389Z,100494.84
2023-02-27T05:36:46.380Z,100498.63
2023-02-27T05:39:20.384Z,100493.24
2023-02-27T05:42:01.024Z,100500.47
2023-02-27T05:44:34.961Z,100497.67
2023-02-27T05:47:28.454Z,100500.64
2023-02-27T05:50:03.577Z,100497.96
2023-02-27T05:52:32.562Z,100504.44
2023-02-27T05:55:09.848Z,100502.94
2023-02-27T05:57:41.337Z,100505.75
2023-02-27T06:00:41.219Z,100508.84
2023-02-27T06:03:12.425Z,100509.66
2023-02-27T06:05:42.999Z,100512.64
2023-02-27T06:08:12.723Z,100517.73
2023-02-27T06:10:46.613Z,100521.41
2023-02-27T06:13:15.300Z,100526.39
2023-02-27T06:15:44.723Z,100531.02
2023-02-27T06:18:15.320Z,100533.83
2023-02-27T06:20:48.151Z,100532.71
2023-02-27T06:23:17.520Z,100536.73
2023-02-27T06:25:46.411Z,100535.95
2023-02-27T06:28:19.093Z,100535.89
2023-02-27T06:30:48.202Z,100537.91
2023-02-27T06:33:17.078Z,100537.80
2023-02-27T06:35:49.409Z,100537.96
2023-02-27T06:38:18.547Z,100530.97
2023-02-27T06:40:47.243Z,100527.29
2023-02-27T06:43:19.297Z,100537.29
2023-02-27T06:45:50.369Z,100536.86
2023-02-27T06:48:19.638Z,100538.98
2023-02-27T06:50:53.897Z,100539.95
2023-02-27T06:53:23.372Z,100543.38
2023-02-27T06:55:52.150Z,100542.98
2023-02-27T06:58:22.675Z,100545.14
2023-02-27T07:00:51.158Z,100549.27
2023-02-27T07:03:20.156Z,100550.48
2023-02-27T07:05:50.696Z,100552.88
2023-02-27T07:08:29.205Z,100553.26
2023-02-27T07:10:58.601Z,100554.76
2023-02-27T07:13:29.970Z,100556.48
2023-02-27T07:15:59.071Z,100559.89
2023-02-27T07:18:28.063Z,100562.15
2023-02-27T07:21:04.612Z,100565.89
2023-02-27T07:23:35.479Z,100577.33
2023-02-27T07:26:07.926Z,100582.42
2023-02-27T07:28:40.465Z,100588.71
2023-02-27T07:31:08.914Z,100589.29
2023-02-27T07:33:39.003Z,100590.77
2023-02-27T07:36:10.772Z,100590.48
2023-02-27T07:38:41.923Z,100593.27
2023-02-27T07:41:21.247Z,100588.67
2023-02-27T07:44:02.732Z,100583.45
2023-02-27T07:46:31.964Z,100584.89
2023-02-27T07:49:00.819Z,100580.32
2023-02-27T07:51:32.171Z,100583.70
2023-02-27T07:54:02.492Z,100586.02
2023-02-27T07:56:32.204Z,100591.45
2023-02-27T07:59:01.402Z,100585.57
2023-02-27T08:01:31.629Z,100589.89
2023-02-27T08:04:08.951Z,100594.36
2023-02-27T08:06:40.393Z,100597.21
2023-02-27T08:09:10.983Z,100597.39
2023-02-27T08:11:44.294Z,100595.70
2023-02-27T08:14:16.675Z,100599.08
2023-02-27T08:17:09.724Z,100597.17
2023-02-27T08:19:44.346Z,100596.39
2023-02-27T08:22:13.445Z,100604.27
2023-02-27T08:24:46.026Z,100609.05
2023-02-27T08:27:15.014Z,100616.63
2023-02-27T08:29:46.057Z,100618.32
2023-02-27T08:32:15.264Z,100623.80
2023-02-27T08:34:44.823Z,100621.91
2023-02-27T08:37:16.174Z,100620.93
2023-02-27T08:39:54.990Z,100622.14
2023-02-27T08:42:33.028Z,100619.80
2023-02-27T08:45:03.136Z,100632.94
2023-02-27T08:47:32.250Z,100638.84
2023-02-27T08:50:00.663Z,100638.98
2023-02-27T08:52:34.564Z,100637.53
2023-02-27T08:55:12.798Z,100631.78
2023-02-27T08:57:46.013Z,100628.31
2023-02-27T09:00:15.793Z,100631.68
2023-02-27T09:02:44.537Z,100638.22
2023-02-27T09:05:16.269Z,100638.49
2023-02-27T09:07:45.897Z,100643.08
2023-02-27T09:10:18.235Z,100643.17
2023-02-27T09:12:52.664Z,100638.73
2023-02-27T09:15:25.036Z,100640.73
2023-02-27T09:17:59.055Z,100640.84
2023-02-27T09:20:27.566Z,100637.64
2023-02-27T09:22:56.452Z,100644.90
2023-02-27T09:25:28.526Z,100648.19
2023-02-27T09:27:56.725Z,100650.77
2023-02-27T09:30:25.062Z,100645.44
2023-02-27T09:32:54.369Z,100651.16
2023-02-27T09:35:25.786Z,100650.86
2023-02-27T09:37:57.519Z,100646.23
2023-02-27T09:40:30.875Z,100646.23
2023-02-27T09:43:12.375Z,100647.70
2023-02-27T09:45:40.924Z,100647.83
2023-02-27T09:48:36.836Z,100649.36
2023-02-27T09:51:05.468Z,100657.27
2023-02-27T09:53:40.946Z,100658.34
2023-02-27T09:56:26.900Z,100659.13
2023-02-27T09:59:15.221Z,100658.95
2023-02-27T10:01:51.245Z,100660.13
2023-02-27T10:04:28.374Z,100662.84
2023-02-27T10:07:04.196Z,100658.66
2023-02-27T10:09:48.223Z,100661.42
2023-02-27T10:12:26.857Z,100668.48
2023-02-27T10:15:06.222Z,100669.76
2023-02-27T10:17:51.390Z,100668.90
2023-02-27T10:20:33.181Z,100668.86
2023-02-27T10:23:04.789Z,100670.47
2023-02-27T10:25:38.022Z,100674.60
2023-02-27T10:28:13.350Z,100682.12
2023-02-27T10:30:45.968Z,100679.56
2023-02-27T10:33:38.994Z,100682.63
2023-02-27T10:36:20.578Z,100683.33
2023-02-27T10:38:56.845Z,100682.84
2023-02-27T10:41:25.506Z,100682.31
2023-02-27T10:43:57.899Z,100681.82
2023-02-27T10:46:30.828Z,100683.27
2023-02-27T10:49:02.210Z,100682.33
2023-02-27T10:51:38.339Z,100679.58
2023-02-27T10:54:24.243Z,100675.51
2023-02-27T10:56:58.331Z,100682.32
2023-02-27T10:59:36.455Z,100681.38
2023-02-27T11:02:21.037Z,100683.63
2023-02-27T11:04:54.272Z,100680.63
2023-02-27T11:07:39.275Z,100683.52
2023-02-27T11:10:18.261Z,100683.78
2023-02-27T11:13:05.751Z,100683.54
2023-02-27T11:15:46.887Z,100686.93
2023-02-27T11:18:24.822Z,100692.20
2023-02-27T11:21:13.978Z,100698.05
2023-02-27T11:24:03.027Z,100705.43
2023-02-27T11:26:37.948Z,100704.04
2023-02-27T11:29:08.442Z,100706.20
2023-02-27T11:31:38.304Z,100702.98
2023-02-27T11:34:08.442Z,100700.31
2023-02-27T11:36:44.605Z,100700.95
2023-02-27T11:39:29.971Z,100697.67
2023-02-27T11:42:05.570Z,100702.92
2023-02-27T11:44:50.500Z,100705.27
2023-02-27T11:47:22.036Z,100703.49
2023-02-27T11:50:44.895Z,100702.13
2023-02-27T11:53:34.544Z,100700.95
2023-02-27T11:56:15.488Z,100699.81
2023-02-27T11:59:13.884Z,100701.58
2023-02-27T12:01:53.928Z,100705.64
2023-02-27T12:04:45.880Z,100706.05
2023-02-27T12:07:26.192Z,100704.75
2023-02-27T12:10:19.820Z,100706.05
2023-02-27T12:12:49.414Z,100709.77
2023-02-27T12:15:28.143Z,100710.13
2023-02-27T12:18:21.496Z,100705.42
2023-02-27T12:21:07.955Z,100704.37
2023-02-27T12:23:54.236Z,100703.14
2023-02-27T12:26:39.043Z,100707.27
2023-02-27T12:29:25.848Z,100706.65
2023-02-27T12:32:21.420Z,100702.21
2023-02-27T12:35:14.651Z,100701.64
2023-02-27T12:37:46.345Z,100703.77
2023-02-27T12:40:17.336Z,100708.81
2023-02-27T12:43:25.765Z,100717.49
2023-02-27T12:46:16.409Z,100718.53
2023-02-27T12:49:00.585Z,100721.67
2023-02-27T12:51:40.943Z,100720.76
2023-02-27T12:54:24.291Z,100720.61
2023-02-27T12:57:24.664Z,100723.25
2023-02-27T13:00:09.517Z,100728.99
2023-02-27T13:03:10.597Z,100729.25
2023-02-27T13:05:45.091Z,100733.16
2023-02-27T13:08:34.644Z,100730.52
2023-02-27T13:11:11.483Z,100735.05
2023-02-27T13:13:43.333Z,100738.94
2023-02-27T13:16:24.485Z,100738.52
2023-02-27T13:19:12.573Z,100738.71
2023-02-27T13:21:54.495Z,100743.00
2023-02-27T13:24:26.463Z,100739.36
2023-02-27T13:27:04.053Z,100744.27
2023-02-27T13:29:42.473Z,100745.66
2023-02-27T13:32:44.168Z,100739.98
2023-02-27T13:35:16.208Z,100738.88
2023-02-27T13:38:05.583Z,100742.27
2023-02-27T13:40:39.605Z,100741.41
2023-02-27T13:43:17.505Z,100737.95
2023-02-27T13:45:55.716Z,100740.44
2023-02-27T13:48:45.993Z,100741.05
2023-02-27T13:51:45.314Z,100747.23
2023-02-27T13:54:14.013Z,100749.97
2023-02-27T13:57:07.849Z,100750.35
2023-02-27T13:59:42.244Z,100746.88
2023-02-27T14:02:32.845Z,100752.40
2023-02-27T14:05:10.205Z,100757.33
2023-02-27T14:08:14.127Z,100764.21
2023-02-27T14:11:23.433Z,100760.92
2023-02-27T14:14:01.544Z,100758.63
2023-02-27T14:16:45.246Z,100753.42
2023-02-27T14:19:26.680Z,100752.92
2023-02-27T14:22:01.701Z,100750.91
2023-02-27T14:25:01.670Z,100751.27
2023-02-27T14:27:47.451Z,100753.13
2023-02-27T14:30:32.344Z,100752.36
2023-02-27T14:33:17.797Z,100751.75
2023-02-27T14:35:58.912Z,100750.95
2023-02-27T14:38:30.199Z,100749.88
2023-02-27T14:41:27.585Z,100756.58
2023-02-27T14:43:58.001Z,100755.59
2023-02-27T14:46:39.554Z,100756.73
2023-02-27T14:49:16.695Z,100754.87
2023-02-27T14:51:45.843Z,100758.80
2023-02-27T14:54:23.100Z,100759.39
2023-02-27T14:57:00.176Z,100762.60
2023-02-27T14:59:30.906Z,100768.30
2023-02-27T15:02:30.002Z,100773.70
2023-02-27T15:05:02.263Z,100779.95
2023-02-27T15:07:33.195Z,100784.42
2023-02-27T15:10:05.721Z,100784.49
2023-02-27T15:12:38.346Z,100788.63
2023-02-27T15:15:18.143Z,100792.75
2023-02-27T15:17:54.044Z,100791.16
2023-02-27T15:20:31.140Z,100793.80
2023-02-27T15:23:01.939Z,100794.08
2023-02-27T15:25:35.129Z,100796.89
2023-02-27T15:28:22.080Z,100801.61
2023-02-27T15:30:51.585Z,100799.70
2023-02-27T15:33:22.755Z,100802.66
2023-02-27T15:35:52.191Z,100809.19
2023-02-27T15:38:31.981Z,100814.05
2023-02-27T15:41:00.943Z,100813.91
2023-02-27T15:43:29.551Z,100820.23
2023-02-27T15:45:58.587Z,100822.08
2023-02-27T15:48:27.109Z,100831.68
2023-02-27T15:50:59.601Z,100836.84
2023-02-27T15:53:29.937Z,100844.67
2023-02-27T15:55:59.958Z,100851.91
2023-02-27T15:58:49.868Z,100855.19
2023-02-27T16:01:23.578Z,100861.64
2023-02-27T16:03:57.160Z,100867.69
2023-02-27T16:06:36.210Z,100867.77
2023-02-27T16:09:10.431Z,100867.73
2023-02-27T16:11:39.516Z,100875.33
2023-02-27T16:14:38.759Z,100879.60
2023-02-27T16:17:39.078Z,100877.29
2023-02-27T16:20:38.711Z,100884.02
2023-02-27T16:23:32.178Z,100889.36
2023-02-27T16:26:21.542Z,100892.09
2023-02-27T16:29:18.289Z,100893.27
2023-02-27T16:31:56.685Z,100901.91
2023-02-27T16:34:44.194Z,100909.69
2023-02-27T16:37:21.021Z,100913.66
2023-02-27T16:39:55.015Z,100916.84
2023-02-27T16:42:23.315Z,100922.72
2023-02-27T16:44:52.015Z,100921.08
2023-02-27T16:47:29.185Z,100924.36
2023-02-27T16:50:00.482Z,100927.29
2023-02-27T16:52:42.745Z,100929.23
2023-02-27T16:55:17.355Z,100934.95
2023-02-27T16:57:48.707Z,100934.77
2023-02-27T17:00:26.714Z,100937.17
2023-02-27T17:02:55.806Z,100939.02
2023-02-27T17:05:25.094Z,100942.19
2023-02-27T17:07:54.394Z,100948.05
2023-02-27T17:10:27.076Z,100944.39
2023-02-27T17:13:05.593Z,100946.30
2023-02-27T17:15:35.102Z,100954.16
2023-02-27T17:18:04.709Z,100958.50
2023-02-27T17:20:33.304Z,100962.04
2023-02-27T17:23:06.281Z,100963.21
2023-02-27T17:25:52.750Z,100968.17
2023-02-27T17:28:25.198Z,100972.34
2023-02-27T17:30:55.442Z,100973.53
2023-02-27T17:33:26.926Z,100974.07
2023-02-27T17:36:17.939Z,100977.74
2023-02-27T17:38:56.589Z,100979.95
2023-02-27T17:41:25.042Z,100981.49
2023-02-27T17:43:55.589Z,100982.63
2023-02-27T17:46:28.673Z,100984.98
2023-02-27T17:49:18.131Z,100988.94
2023-02-27T17:51:49.991Z,100993.50
2023-02-27T17:54:24.731Z,100998.80
2023-02-27T17:56:59.451Z,101006.13
2023-02-27T17:59:29.425Z,101010.42
2023-02-27T18:01:58.355Z,101008.35
2023-02-27T18:04:30.247Z,101018.66
2023-02-27T18:07:05.351Z,101019.44
2023-02-27T18:09:38.549Z,101022.86
2023-02-27T18:12:10.198Z,101023.55
2023-02-27T18:14:43.934Z,101029.07
2023-02-27T18:17:13.487Z,101030.40
2023-02-27T18:19:42.169Z,101033.27
2023-02-27T18:22:12.372Z,101032.40
2023-02-27T18:24:40.675Z,101038.86
2023-02-27T18:27:14.706Z,101040.23
2023-02-27T18:29:47.983Z,101045.71
2023-02-27T18:32:25.762Z,101047.69
2023-02-27T18:35:00.860Z,101051.09
2023-02-27T18:37:49.423Z,101057.42
2023-02-27T18:40:18.376Z,101057.67
2023-02-27T18:43:11.234Z,101057.34
2023-02-27T18:45:41.290Z,101066.46
2023-02-27T18:48:09.969Z,101072.11
2023-02-27T18:50:39.233Z,101075.89
2023-02-27T18:53:13.056Z,101074.73
2023-02-27T18:55:44.638Z,101079.20
2023-02-27T18:58:17.832Z,101079.36
2023-02-27T19:00:46.406Z,101085.27
2023-02-27T19:03:15.337Z,101088.05
2023-02-27T19:05:45.891Z,101091.60
2023-02-27T19:08:14.381Z,101094.63
2023-02-27T19:10:48.791Z,101092.94
2023-02-27T19:13:17.683Z,101091.23
2023-02-27T19:15:51.967Z,101093.30
2023-02-27T19:18:20.788Z,101093.89
2023-02-27T19:20:50.097Z,101091.09
2023-02-27T19:23:21.646Z,101093.52
2023-02-27T19:26:14.411Z,101095.15
2023-02-27T19:28:44.013Z,101102.46
2023-02-27T19:31:20.092Z,101108.80
2023-02-27T19:33:49.130Z,101109.40
2023-02-27T19:36:18.866Z,101108.95
2023-02-27T19:38:47.582Z,101110.05
2023-02-27T19:41:26.301Z,101116.70
2023-02-27T19:44:00.172Z,101116.16
2023-02-27T19:46:31.600Z,101109.03
2023-02-27T19:49:01.681Z,101102.65
2023-02-27T19:51:30.609Z,101103.39
2023-02-27T19:53:59.785Z,101103.05
2023-02-27T19:56:31.938Z,101109.83
2023-02-27T19:59:02.157Z,101119.52
2023-02-27T20:01:56.442Z,101120.89
2023-02-27T20:05:08.545Z,101121.60
2023-02-27T20:07:37.754Z,101119.27
2023-02-27T20:10:30.190Z,101122.79
2023-02-27T20:12:58.880Z,101127.23
2023-02-27T20:15:31.159Z,101134.02
2023-02-27T20:17:59.755Z,101130.75
2023-02-27T20:20:29.284Z,101130.39
2023-02-27T20:23:00.288Z,101126.23
2023-02-27T20:25:41.700Z,101127.14
2023-02-27T20:28:15.172Z,101131.13
2023-02-27T20:30:49.459Z,101134.23
2023-02-27T20:33:18.073Z,101146.66
2023-02-27T20:35:49.910Z,101142.90
2023-02-27T20:38:25.174Z,101152.19
2023-02-27T20:40:57.650Z,101145.27
2023-02-27T20:43:28.187Z,101149.77
2023-02-27T20:45:57.018Z,101148.02
2023-02-27T20:48:25.578Z,101154.41
2023-02-27T20:50:57.417Z,101159.16
2023-02-27T20:53:28.768Z,101159.86
2023-02-27T20:55:59.217Z,101161.02
2023-02-27T20:58:32.381Z,101163.57
2023-02-27T21:01:04.806Z,101159.95
2023-02-27T21:03:38.556Z,101164.91
2023-02-27T21:06:12.030Z,101163.73
2023-02-27T21:08:44.302Z,101168.55
2023-02-27T21:11:18.658Z,101167.77
2023-02-27T21:13:47.442Z,101164.28
2023-02-27T21:16:17.339Z,101164.52
2023-02-27T21:18:46.228Z,101162.03
2023-02-27T21:21:20.653Z,101165.73
2023-02-27T21:24:00.284Z,101169.42
2023-02-27T21:26:35.197Z,101170.06
2023-02-27T21:29:14.283Z,101172.98
2023-02-27T21:31:49.398Z,101180.86
2023-02-27T21:34:23.240Z,101179.81
2023-02-27T21:36:54.496Z,101173.31
2023-02-27T21:39:45.600Z,101178.88
2023-02-27T21:42:14.085Z,101181.40
2023-02-27T21:44:44.033Z,101184.14
2023-02-27T21:47:17.836Z,101187.66
2023-02-27T21:49:48.571Z,101190.89
2023-02-27T21:52:17.976Z,101192.59
2023-02-27T21:54:58.950Z,101189.88
2023-02-27T21:57:28.394Z,101188.45
2023-02-27T21:59:58.605Z,101192.88
2023-02-27T22:02:27.059Z,101192.68
2023-02-27T22:04:56.922Z,101192.52
2023-02-27T22:07:29.572Z,101198.01
2023-02-27T22:10:02.508Z,101193.43
2023-02-27T22:12:33.507Z,101195.21
2023-02-27T22:15:01.854Z,101196.58
2023-02-27T22:17:34.850Z,101198.95
2023-02-27T22:20:07.274Z,101206.16
2023-02-27T22:22:43.286Z,101206.91
2023-02-27T22:25:15.353Z,101202.35
2023-02-27T22:27:43.846Z,101203.88
2023-02-27T22:30:15.731Z,101208.91
2023-02-27T22:32:45.295Z,101200.73
2023-02-27T22:35:13.852Z,101203.77
2023-02-27T22:37:46.384Z,101200.88
2023-02-27T22:40:24.727Z,101202.20
2023-02-27T22:42:53.195Z,101205.70
2023-02-27T22:45:31.717Z,101200.73
2023-02-27T22:48:00.500Z,101197.02
2023-02-27T22:50:30.045Z,101197.33
2023-02-27T22:53:10.572Z,101199.98
2023-02-27T22:55:40.808Z,101199.48
2023-02-27T22:58:18.596Z,101196.10
2023-02-27T23:00:48.373Z,101198.02
2023-02-27T23:03:29.658Z,101198.36
2023-02-27T23:05:58.429Z,101199.36
2023-02-27T23:08:35.879Z,101201.85
2023-02-27T23:11:19.494Z,101202.25
2023-02-27T23:13:49.056Z,101207.28
2023-02-27T23:16:25.178Z,101209.66
2023-02-27T23:18:56.018Z,101207.52
2023-02-27T23:21:29.979Z,101210.80
2023-02-27T23:24:11.972Z,101204.84
2023-02-27T23:26:44.803Z,101209.21
2023-02-27T23:29:20.818Z,101210.20
2023-02-27T23:31:52.667Z,101203.73
2023-02-27T23:34:49.305Z,101205.55
2023-02-27T23:37:18.507Z,101209.84
2023-02-27T23:39:57.841Z,101211.52
2023-02-27T23:42:30.318Z,101212.06
2023-02-27T23:45:20.837Z,101210.90
2023-02-27T23:47:59.430Z,101204.09
2023-02-27T23:50:33.705Z,101198.25
2023-02-27T23:53:16.114Z,101197.83
2023-02-27T23:55:44.306Z,101203.31
2023-02-27T23:58:18.476Z,101202.72
